Time;durP1;ratioP1;P1;durP2;ratioP2;P2;SDS_P1;SDS_P2;PMS_P1;PMS_P2;Temp;Humidity;BMP_temperature;BMP_pressure;BME280_temperature;BME280_humidity;BME280_pressure;Samples;Min_cycle;Max_cycle;Signal;HPM_P1;HPM_P2
2023/01/04 00:01:12;;;;;;;9.52;5.18;;;;;;;1.16;100.00;96744.63;5016906;28;20033;-78
2023/01/04 00:03:38;;;;;;;10.82;5.28;;;;;;;1.13;100.00;96746.78;5054651;28;20041;-78
2023/01/04 00:06:05;;;;;;;11.52;5.63;;;;;;;1.10;100.00;96740.16;5042444;28;20136;-78
2023/01/04 00:08:31;;;;;;;11.15;6.13;;;;;;;0.96;100.00;96722.81;5052377;28;20064;-78
2023/01/04 00:11:05;;;;;;;11.18;5.72;;;;;;;0.95;100.00;96731.56;5041640;28;20036;-78
2023/01/04 00:13:30;;;;;;;10.40;5.93;;;;;;;0.84;100.00;96728.44;5021806;28;20057;-77
2023/01/04 00:15:57;;;;;;;13.18;6.65;;;;;;;0.81;100.00;96726.22;5021761;28;20429;-78
2023/01/04 00:18:22;;;;;;;12.00;5.53;;;;;;;0.80;100.00;96714.22;5040870;28;20114;-78
2023/01/04 00:20:48;;;;;;;12.90;5.50;;;;;;;0.74;100.00;96719.34;5027088;28;20539;-78
2023/01/04 00:23:13;;;;;;;12.20;6.10;;;;;;;0.75;100.00;96720.91;5047936;28;20041;-77
2023/01/04 00:25:39;;;;;;;11.82;5.82;;;;;;;0.70;100.00;96729.22;5047000;28;20051;-78
2023/01/04 00:28:05;;;;;;;11.75;5.85;;;;;;;0.62;100.00;96721.56;5028315;28;20495;-77
2023/01/04 00:30:30;;;;;;;11.10;5.60;;;;;;;0.63;100.00;96723.16;5034656;28;20050;-77
2023/01/04 00:32:57;;;;;;;10.07;5.72;;;;;;;0.59;100.00;96727.06;5037026;28;20037;-77
2023/01/04 00:35:22;;;;;;;11.02;5.60;;;;;;;0.52;100.00;96721.81;5030394;28;20037;-77
2023/01/04 00:37:48;;;;;;;11.55;5.65;;;;;;;0.42;100.00;96722.03;5013346;28;20052;-78
2023/01/04 00:40:13;;;;;;;15.13;6.15;;;;;;;0.35;100.00;96721.13;5022390;28;20060;-78
2023/01/04 00:42:39;;;;;;;11.25;5.72;;;;;;;0.35;100.00;96708.19;5044112;28;20042;-78
2023/01/04 00:45:05;;;;;;;13.20;5.70;;;;;;;0.38;100.00;96720.78;5047410;28;20046;-78
2023/01/04 00:47:30;;;;;;;14.00;6.75;;;;;;;0.37;100.00;96713.97;5043940;28;20495;-78
2023/01/04 00:49:56;;;;;;;12.73;6.20;;;;;;;0.36;100.00;96707.22;5049811;28;20059;-78
2023/01/04 00:52:21;;;;;;;10.07;5.55;;;;;;;0.29;100.00;96706.31;5022139;28;20087;-78
2023/01/04 00:54:47;;;;;;;14.23;6.35;;;;;;;0.22;100.00;96701.00;5045977;28;20571;-78
2023/01/04 00:57:12;;;;;;;11.75;6.28;;;;;;;0.14;100.00;96699.31;5015838;28;20119;-78
2023/01/04 00:59:38;;;;;;;12.32;5.95;;;;;;;0.25;100.00;96699.84;5024020;28;20045;-78
2023/01/04 01:02:03;;;;;;;11.40;6.10;;;;;;;0.15;100.00;96695.72;5046286;28;20040;-78
2023/01/04 01:04:29;;;;;;;13.05;5.90;;;;;;;0.04;100.00;96693.53;5053336;28;20052;-78
2023/01/04 01:06:55;;;;;;;11.27;5.80;;;;;;;0.05;100.00;96689.19;5041779;28;20037;-78
2023/01/04 01:09:24;;;;;;;12.05;5.70;;;;;;;0.00;100.00;96687.13;5046371;28;20063;-78
2023/01/04 01:11:51;;;;;;;11.55;5.50;;;;;;;-0.03;100.00;96688.25;5046181;28;20045;-78
2023/01/04 01:14:20;;;;;;;10.32;5.05;;;;;;;-0.05;100.00;96684.22;5033433;28;20038;-78
2023/01/04 01:16:46;;;;;;;13.48;5.68;;;;;;;-0.12;100.00;96685.91;5024961;28;20125;-78
2023/01/04 01:19:12;;;;;;;9.65;5.45;;;;;;;-0.12;100.00;96693.66;5032207;28;20041;-76
2023/01/04 01:21:37;;;;;;;9.32;5.07;;;;;;;-0.20;100.00;96692.72;5004874;28;20602;-76
2023/01/04 01:24:04;;;;;;;11.85;5.22;;;;;;;-0.17;100.00;96691.59;5042240;28;20060;-76
2023/01/04 01:26:29;;;;;;;10.88;5.10;;;;;;;-0.19;100.00;96691.78;5038567;28;20175;-76
2023/01/04 01:28:55;;;;;;;9.90;5.00;;;;;;;-0.25;100.00;96684.66;5040030;28;20412;-76
2023/01/04 01:31:23;;;;;;;12.52;5.57;;;;;;;-0.31;100.00;96690.53;5036544;28;20042;-76
2023/01/04 01:33:51;;;;;;;10.40;5.20;;;;;;;-0.31;100.00;96695.72;5010020;28;20511;-79
2023/01/04 01:36:18;;;;;;;11.63;5.03;;;;;;;-0.36;100.00;96691.06;5048117;28;20044;-78
2023/01/04 01:38:44;;;;;;;8.68;4.55;;;;;;;-0.38;100.00;96699.97;5030848;28;20045;-78
2023/01/04 01:41:22;;;;;;;10.80;5.10;;;;;;;-0.37;100.00;96701.56;5030639;28;20033;-78
2023/01/04 01:43:58;;;;;;;8.55;4.45;;;;;;;-0.30;100.00;96707.69;5016859;28;20046;-78
2023/01/04 01:46:41;;;;;;;8.35;4.50;;;;;;;-0.34;100.00;96716.75;5040384;28;20049;-78
2023/01/04 01:49:22;;;;;;;10.55;4.75;;;;;;;-0.41;100.00;96721.00;5009770;28;20038;-78
2023/01/04 01:51:48;;;;;;;8.45;4.63;;;;;;;-0.46;100.00;96712.94;5042950;28;20040;-78
2023/01/04 01:54:21;;;;;;;12.48;4.60;;;;;;;-0.50;100.00;96711.66;5051598;28;20048;-78
2023/01/04 01:56:49;;;;;;;9.20;4.15;;;;;;;-0.51;100.00;96708.28;5049678;28;20033;-78
2023/01/04 01:59:16;;;;;;;11.73;5.15;;;;;;;-0.64;100.00;96701.06;5017518;28;20053;-78
2023/01/04 02:01:41;;;;;;;11.02;4.93;;;;;;;-0.56;100.00;96708.78;5005589;28;20049;-78
2023/01/04 02:04:08;;;;;;;10.32;4.68;;;;;;;-0.61;100.00;96705.88;5033449;28;20052;-78
2023/01/04 02:06:42;;;;;;;8.95;4.60;;;;;;;-0.27;100.00;96717.69;5015497;28;20041;-78
2023/01/04 02:09:08;;;;;;;11.95;5.50;;;;;;;-0.16;100.00;96723.44;5038888;28;20072;-78
2023/01/04 02:11:34;;;;;;;15.77;7.10;;;;;;;0.08;100.00;96717.28;5010709;28;20046;-78
2023/01/04 02:17:11;;;;;;;18.92;8.20;;;;;;;1.13;100.00;96711.28;5029797;28;20119;-78
2023/01/04 02:19:56;;;;;;;19.38;8.23;;;;;;;1.19;100.00;96713.19;5031308;28;20084;-78
2023/01/04 02:22:59;;;;;;;26.45;8.48;;;;;;;1.35;100.00;96711.34;5022145;28;20038;-77
2023/01/04 02:25:35;;;;;;;19.77;8.98;;;;;;;1.43;100.00;96707.88;5024417;28;20042;-78
2023/01/04 02:28:39;;;;;;;20.73;9.48;;;;;;;1.40;100.00;96703.84;5030054;28;20033;-77
2023/01/04 02:31:24;;;;;;;20.13;8.93;;;;;;;1.40;100.00;96703.06;4995543;28;20053;-78
2023/01/04 02:34:31;;;;;;;19.02;9.02;;;;;;;1.29;100.00;96686.16;5017879;28;20046;-78
2023/01/04 02:37:05;;;;;;;17.25;7.90;;;;;;;1.14;100.00;96686.97;5008170;28;20057;-78
2023/01/04 02:39:46;;;;;;;18.38;8.13;;;;;;;0.99;100.00;96692.19;5044476;28;20045;-76
2023/01/04 02:44:51;;;;;;;16.27;7.88;;;;;;;0.84;100.00;96689.56;5020446;28;22222;-76
2023/01/04 02:45:12;;;;;;;17.00;7.05;;;;;;;0.77;100.00;96693.06;5041598;28;20512;-76
2023/01/04 02:50:30;;;;;;;18.20;7.37;;;;;;;0.75;100.00;96695.84;5049578;28;20086;-77
2023/01/04 02:53:11;;;;;;;15.68;7.28;;;;;;;0.78;100.00;96695.47;5022066;28;20034;-77
2023/01/04 02:55:57;;;;;;;24.25;7.45;;;;;;;1.00;100.00;96695.56;5035687;28;20266;-78
2023/01/04 02:58:41;;;;;;;27.15;7.57;;;;;;;1.10;100.00;96687.53;5039950;28;20037;-77
2023/01/04 03:07:33;;;;;;;41.42;8.30;;;;;;;1.09;100.00;96676.31;5027013;28;20157;-77
2023/01/04 03:10:09;;;;;;;32.17;8.75;;;;;;;0.94;100.00;96672.97;5020515;28;20042;-77
2023/01/04 03:12:47;;;;;;;24.85;8.70;;;;;;;0.79;100.00;96657.41;5018229;28;20435;-77
2023/01/04 03:15:21;;;;;;;24.10;8.52;;;;;;;0.77;100.00;96667.94;5027571;28;20457;-77
2023/01/04 03:17:56;;;;;;;31.75;8.60;;;;;;;0.69;100.00;96665.47;5044825;28;20487;-78
2023/01/04 03:20:24;;;;;;;28.10;8.02;;;;;;;0.70;100.00;96667.06;5030439;28;20052;-77
2023/01/04 03:37:49;;;;;;;14.00;6.57;;;;;;;0.22;100.00;96663.97;5040343;28;20041;-77
2023/01/04 03:49:18;;;;;;;14.55;6.65;;;;;;;-0.07;100.00;96657.69;5026339;28;20458;-78
2023/01/04 03:51:45;;;;;;;18.10;7.10;;;;;;;-0.16;100.00;96651.00;5038812;28;20056;-78
2023/01/04 03:54:15;;;;;;;13.50;6.55;;;;;;;-0.18;100.00;96659.72;5011782;28;20107;-78
2023/01/04 03:56:43;;;;;;;17.15;7.60;;;;;;;-0.09;100.00;96657.88;5040912;28;20048;-76
2023/01/04 03:59:11;;;;;;;18.08;7.13;;;;;;;-0.02;100.00;96648.44;5032932;28;20135;-78
2023/01/04 04:01:38;;;;;;;17.00;7.40;;;;;;;-0.18;100.00;96651.16;5038672;28;20115;-76
2023/01/04 04:09:32;;;;;;;16.10;6.63;;;;;;;-0.30;100.00;96639.59;5029708;28;20045;-78
2023/01/04 04:11:57;;;;;;;14.95;6.50;;;;;;;-0.46;100.00;96631.00;5040343;28;20048;-77
2023/01/04 04:14:23;;;;;;;13.80;6.50;;;;;;;-0.62;100.00;96631.88;4995429;28;20535;-78
2023/01/04 04:16:49;;;;;;;15.23;6.55;;;;;;;-0.68;100.00;96627.41;5033223;28;20033;-78
2023/01/04 04:19:14;;;;;;;20.95;6.75;;;;;;;-0.73;100.00;96624.53;5029710;28;20098;-78
2023/01/04 04:21:40;;;;;;;16.08;6.30;;;;;;;-0.74;100.00;96622.91;5014299;28;20037;-78
2023/01/04 04:24:06;;;;;;;13.10;6.55;;;;;;;-0.78;100.00;96617.25;5040902;28;20052;-78
2023/01/04 04:26:32;;;;;;;14.18;6.47;;;;;;;-0.72;100.00;96631.28;5033727;28;20037;-78
2023/01/04 04:28:57;;;;;;;12.82;6.32;;;;;;;-0.81;100.00;96624.56;5014914;28;20057;-78
2023/01/04 04:31:23;;;;;;;14.07;6.07;;;;;;;-0.89;100.00;96621.06;5021604;28;20521;-78
2023/01/04 04:33:49;;;;;;;16.60;5.90;;;;;;;-0.90;100.00;96629.78;5036031;28;20045;-77
2023/01/04 04:36:14;;;;;;;13.43;5.50;;;;;;;-0.90;100.00;96632.34;5043442;28;20045;-78
2023/01/04 04:38:40;;;;;;;11.05;5.28;;;;;;;-0.91;100.00;96630.75;5043882;28;20053;-78
2023/01/04 04:43:56;;;;;;;11.60;5.43;;;;;;;-1.00;100.00;96613.69;5037583;28;20045;-78
2023/01/04 04:46:22;;;;;;;11.65;5.20;;;;;;;-0.99;100.00;96610.13;5037474;28;20052;-78
2023/01/04 04:48:47;;;;;;;11.48;5.30;;;;;;;-1.01;100.00;96601.72;5014208;28;20045;-77
2023/01/04 04:51:13;;;;;;;12.45;5.53;;;;;;;-1.00;100.00;96608.50;5033916;28;20058;-78
2023/01/04 04:53:39;;;;;;;12.38;4.97;;;;;;;-0.99;100.00;96599.78;5041943;28;20831;-77
2023/01/04 04:56:05;;;;;;;13.18;5.43;;;;;;;-0.98;100.00;96601.38;5044983;28;20418;-77
2023/01/04 04:58:31;;;;;;;9.38;4.53;;;;;;;-0.96;100.00;96599.44;5024442;28;20041;-77
2023/01/04 05:00:56;;;;;;;10.13;4.78;;;;;;;-0.98;100.00;96596.22;5023268;28;20037;-77
2023/01/04 05:03:22;;;;;;;10.40;4.85;;;;;;;-0.99;100.00;96592.03;5041916;28;20498;-77
2023/01/04 05:05:47;;;;;;;10.48;5.20;;;;;;;-0.94;100.00;96591.53;5022840;28;20650;-77
2023/01/04 05:08:13;;;;;;;11.80;5.05;;;;;;;-0.96;100.00;96599.44;5030566;28;20053;-77
2023/01/04 05:10:38;;;;;;;10.85;5.25;;;;;;;-1.05;100.00;96595.28;5013227;28;20071;-77
2023/01/04 05:13:06;;;;;;;10.18;5.38;;;;;;;-1.15;100.00;96594.69;5021220;28;20045;-76
2023/01/04 05:15:40;;;;;;;9.73;4.75;;;;;;;-1.13;100.00;96598.72;5029226;28;20041;-77
2023/01/04 05:18:06;;;;;;;10.38;4.90;;;;;;;-1.10;100.00;96598.38;5021219;28;20037;-79
2023/01/04 05:20:32;;;;;;;9.50;4.75;;;;;;;-1.09;100.00;96594.03;5016615;28;20050;-77
2023/01/04 05:22:58;;;;;;;10.52;4.70;;;;;;;-1.12;100.00;96586.59;5037871;28;20416;-77
2023/01/04 05:25:24;;;;;;;9.32;4.72;;;;;;;-0.76;100.00;96593.84;5046672;28;20210;-77
2023/01/04 05:27:50;;;;;;;8.23;4.35;;;;;;;-0.91;100.00;96596.34;5028749;28;20419;-76
2023/01/04 05:33:01;;;;;;;7.78;4.32;;;;;;;-1.02;100.00;96594.97;5028725;28;20037;-77
2023/01/04 05:35:27;;;;;;;7.82;4.40;;;;;;;-1.02;100.00;96594.97;5018533;28;20046;-77
2023/01/04 05:37:52;;;;;;;8.68;4.47;;;;;;;-1.13;100.00;96593.56;5041850;28;20090;-77
2023/01/04 05:40:19;;;;;;;9.35;4.80;;;;;;;-1.18;100.00;96589.84;5022927;28;20045;-76
2023/01/04 05:42:44;;;;;;;8.82;4.68;;;;;;;-1.15;100.00;96594.69;5036597;28;20049;-77
2023/01/04 05:45:10;;;;;;;9.32;4.50;;;;;;;-1.12;100.00;96599.50;5027138;28;20049;-77
2023/01/04 05:47:35;;;;;;;6.47;3.50;;;;;;;-1.12;100.00;96602.09;5029080;28;20418;-77
2023/01/04 05:50:02;;;;;;;7.47;3.78;;;;;;;-1.17;100.00;96607.78;5030925;28;20042;-77
2023/01/04 05:52:28;;;;;;;7.85;4.05;;;;;;;-1.14;100.00;96601.47;5027278;28;20041;-77
2023/01/04 05:54:54;;;;;;;9.10;4.07;;;;;;;-1.17;100.00;96596.66;5016367;28;20092;-76
2023/01/04 05:57:19;;;;;;;8.65;4.18;;;;;;;-1.19;100.00;96606.31;5023423;28;20049;-77
2023/01/04 05:59:45;;;;;;;7.30;4.28;;;;;;;-1.19;100.00;96599.41;5053891;28;20048;-77
2023/01/04 06:02:20;;;;;;;6.70;3.58;;;;;;;-1.18;100.00;96602.78;5017009;28;20415;-77
2023/01/04 06:04:46;;;;;;;8.15;3.80;;;;;;;-1.16;100.00;96600.84;5032373;28;20042;-78
2023/01/04 06:07:12;;;;;;;8.32;4.28;;;;;;;-1.07;100.00;96602.41;5010042;28;20045;-78
2023/01/04 06:09:38;;;;;;;8.88;4.00;;;;;;;-1.08;100.00;96603.38;5044533;28;20061;-77
2023/01/04 06:12:04;;;;;;;9.13;4.13;;;;;;;-1.02;100.00;96615.63;5040139;28;20084;-77
2023/01/04 06:14:30;;;;;;;7.07;3.83;;;;;;;-0.82;100.00;96615.19;5026104;28;20101;-78
2023/01/04 06:16:55;;;;;;;10.25;4.10;;;;;;;-0.83;100.00;96618.75;5043825;28;20123;-77
2023/01/04 06:19:21;;;;;;;8.88;3.97;;;;;;;-0.55;100.00;96619.06;5033263;28;20589;-77
2023/01/04 06:21:46;;;;;;;8.85;3.63;;;;;;;-0.35;100.00;96622.81;5035755;28;20549;-77
2023/01/04 06:24:12;;;;;;;6.93;3.30;;;;;;;0.11;100.00;96616.78;5014412;28;20041;-77
2023/01/04 06:26:37;;;;;;;11.30;4.10;;;;;;;-0.01;100.00;96618.22;5015562;28;20037;-77
2023/01/04 06:29:03;;;;;;;9.13;4.22;;;;;;;-0.03;100.00;96614.97;5031810;28;20116;-78
2023/01/04 06:31:29;;;;;;;8.77;3.88;;;;;;;0.03;100.00;96619.47;5026550;28;20495;-76
2023/01/04 06:33:55;;;;;;;7.85;4.15;;;;;;;0.39;100.00;96616.22;5039412;28;20041;-76
2023/01/04 06:36:21;;;;;;;7.95;4.28;;;;;;;0.75;100.00;96618.09;5036830;28;20099;-76
2023/01/04 06:38:48;;;;;;;7.82;3.80;;;;;;;0.80;100.00;96615.75;5013548;28;20092;-76
2023/01/04 06:41:13;;;;;;;9.02;4.20;;;;;;;0.88;100.00;96612.28;5041105;28;20454;-76
2023/01/04 06:43:39;;;;;;;9.35;4.47;;;;;;;0.99;100.00;96605.81;5020555;28;20041;-78
2023/01/04 06:46:04;;;;;;;9.27;4.53;;;;;;;0.92;100.00;96591.97;5014725;28;20087;-77
2023/01/04 06:48:30;;;;;;;8.90;4.82;;;;;;;0.74;100.00;96589.78;5031228;28;20095;-77
2023/01/04 06:50:55;;;;;;;7.10;4.15;;;;;;;0.62;100.00;96587.63;5046144;28;20537;-77
2023/01/04 06:53:21;;;;;;;7.28;3.85;;;;;;;0.59;100.00;96587.19;5015433;28;20042;-77
2023/01/04 06:55:46;;;;;;;7.38;4.47;;;;;;;0.33;100.00;96593.59;5034148;28;20033;-77
2023/01/04 06:58:12;;;;;;;6.45;3.45;;;;;;;0.14;100.00;96589.75;5047763;28;20041;-76
2023/01/04 07:00:37;;;;;;;8.13;3.65;;;;;;;-0.06;100.00;96589.44;5039136;28;20072;-77
2023/01/04 07:03:03;;;;;;;5.35;3.20;;;;;;;-0.06;100.00;96587.69;5010963;28;20050;-77
2023/01/04 07:05:29;;;;;;;7.18;3.72;;;;;;;-0.10;100.00;96583.00;5020922;28;20046;-78
2023/01/04 07:07:54;;;;;;;7.78;3.88;;;;;;;-0.22;100.00;96583.44;5015106;28;20045;-77
2023/01/04 07:10:20;;;;;;;7.32;3.72;;;;;;;-0.27;100.00;96578.00;5020621;28;20038;-77
2023/01/04 07:12:45;;;;;;;5.50;3.08;;;;;;;-0.27;100.00;96588.34;5034935;28;20037;-78
2023/01/04 07:15:11;;;;;;;8.80;4.22;;;;;;;-0.32;100.00;96584.66;5008669;28;20576;-78
2023/01/04 07:17:37;;;;;;;7.13;3.80;;;;;;;-0.32;100.00;96585.44;5015272;28;20065;-77
2023/01/04 07:20:03;;;;;;;6.47;3.40;;;;;;;-0.44;100.00;96586.84;5018016;28;20041;-78
2023/01/04 07:22:29;;;;;;;8.48;3.97;;;;;;;-0.38;100.00;96586.16;5010597;28;20451;-78
2023/01/04 07:24:55;;;;;;;6.43;3.45;;;;;;;-0.46;100.00;96591.38;5022420;28;20042;-78
2023/01/04 07:27:21;;;;;;;6.35;3.38;;;;;;;-0.45;100.00;96587.81;5024593;28;20045;-77
2023/01/04 07:29:46;;;;;;;5.18;3.10;;;;;;;-0.54;100.00;96582.69;5028043;28;20041;-78
2023/01/04 07:32:12;;;;;;;7.03;3.60;;;;;;;-0.56;100.00;96584.66;5026562;28;20051;-78
2023/01/04 07:34:38;;;;;;;7.25;3.55;;;;;;;-0.53;100.00;96584.31;5025142;28;20042;-78
2023/01/04 07:37:08;;;;;;;6.75;3.20;;;;;;;-0.56;100.00;96584.66;5009709;28;20038;-80
2023/01/04 07:39:33;;;;;;;5.72;3.15;;;;;;;-0.57;100.00;96593.41;5043110;28;20087;-77
2023/01/04 07:41:59;;;;;;;5.57;3.28;;;;;;;-0.54;100.00;96593.03;5003226;28;20046;-74
2023/01/04 07:44:27;;;;;;;5.18;3.10;;;;;;;-0.37;100.00;96587.78;4998200;28;20467;-79
2023/01/04 07:46:53;;;;;;;8.32;3.65;;;;;;;-0.31;100.00;96587.06;5020649;28;20040;-78
2023/01/04 07:49:19;;;;;;;5.72;3.45;;;;;;;-0.31;100.00;96587.06;5042097;28;20060;-79
2023/01/04 07:51:46;;;;;;;12.45;4.80;;;;;;;-0.23;100.00;96584.44;5041316;28;20056;-79
2023/01/04 07:54:13;;;;;;;19.10;6.38;;;;;;;0.26;100.00;96574.59;5009917;28;20030;-79
2023/01/04 07:56:39;;;;;;;12.55;5.68;;;;;;;0.49;100.00;96557.19;5033011;28;20056;-78
2023/01/04 07:59:06;;;;;;;7.07;3.30;;;;;;;0.73;100.00;96559.66;5037475;28;20038;-77
2023/01/04 08:01:37;;;;;;;8.05;4.20;;;;;;;0.97;100.00;96558.56;5038435;28;20099;-78
2023/01/04 08:04:07;;;;;;;9.95;5.03;;;;;;;1.18;100.00;96555.97;5027488;28;20037;-77
2023/01/04 08:06:34;;;;;;;8.05;4.25;;;;;;;1.30;100.00;96547.72;5012394;28;20034;-78
2023/01/04 08:09:01;;;;;;;10.95;4.97;;;;;;;1.54;100.00;96549.16;5018040;28;20171;-78
2023/01/04 08:11:27;;;;;;;8.57;4.20;;;;;;;1.52;100.00;96549.34;5028855;28;20042;-78
2023/01/04 08:13:52;;;;;;;9.57;4.32;;;;;;;1.60;100.00;96538.00;5019182;28;20038;-79
2023/01/04 08:16:30;;;;;;;9.18;4.20;;;;;;;1.77;100.00;96548.94;5036771;28;20186;-79
2023/01/04 08:18:57;;;;;;;7.78;3.70;;;;;;;2.00;100.00;96542.72;5032404;28;20570;-77
2023/01/04 08:21:24;;;;;;;8.50;3.83;;;;;;;2.09;100.00;96541.56;5025060;28;20091;-78
2023/01/04 08:23:51;;;;;;;6.60;3.25;;;;;;;2.20;100.00;96535.84;5015069;28;20049;-78
2023/01/04 08:26:17;;;;;;;7.88;3.75;;;;;;;2.36;100.00;96542.53;5004675;28;20042;-77
2023/01/04 08:28:44;;;;;;;6.20;3.28;;;;;;;2.50;100.00;96548.63;5039168;28;20038;-78
2023/01/04 08:31:16;;;;;;;5.25;2.65;;;;;;;2.67;100.00;96543.91;5033776;28;20045;-78
2023/01/04 08:33:43;;;;;;;4.90;2.83;;;;;;;2.78;100.00;96545.13;5047388;28;20044;-78
2023/01/04 08:36:33;;;;;;;6.80;3.28;;;;;;;2.81;100.00;96544.72;5010127;28;20034;-77
2023/01/04 08:39:02;;;;;;;7.10;3.30;;;;;;;2.90;100.00;96540.97;5029150;28;20175;-77
2023/01/04 08:41:49;;;;;;;5.50;3.08;;;;;;;3.06;100.00;96544.22;5041340;28;20487;-78
2023/01/04 08:44:16;;;;;;;6.60;3.65;;;;;;;3.14;100.00;96544.03;5018203;28;20049;-77
2023/01/04 08:46:41;;;;;;;6.13;3.45;;;;;;;3.21;100.00;96544.84;5023934;28;20049;-78
2023/01/04 08:49:07;;;;;;;6.85;3.30;;;;;;;3.38;100.00;96539.31;5040569;28;20041;-79
2023/01/04 08:51:33;;;;;;;6.40;3.20;;;;;;;3.44;100.00;96538.50;5019142;28;20136;-78
2023/01/04 08:53:59;;;;;;;7.13;2.95;;;;;;;3.63;100.00;96540.34;5028303;28;20096;-77
2023/01/04 08:56:24;;;;;;;6.43;3.42;;;;;;;3.81;100.00;96538.94;5026919;28;20129;-78
2023/01/04 08:58:50;;;;;;;7.00;3.28;;;;;;;4.03;100.00;96542.09;5011389;28;20042;-77
2023/01/04 09:01:15;;;;;;;7.03;3.47;;;;;;;4.07;100.00;96545.13;5011183;28;20474;-78
2023/01/04 09:03:41;;;;;;;5.45;2.92;;;;;;;4.22;100.00;96540.47;5011112;28;20038;-78
2023/01/04 09:06:10;;;;;;;6.05;3.10;;;;;;;4.30;100.00;96532.44;5027858;28;20052;-77
2023/01/04 09:08:37;;;;;;;6.00;3.00;;;;;;;4.28;100.00;96526.66;5000131;28;20579;-80
2023/01/04 09:11:10;;;;;;;6.95;3.38;;;;;;;4.30;100.00;96539.47;4992770;28;20580;-78
2023/01/04 09:13:38;;;;;;;5.65;2.90;;;;;;;4.24;100.00;96516.81;5003806;28;20069;-77
2023/01/04 09:16:07;;;;;;;7.60;3.83;;;;;;;4.18;100.00;96523.66;5001993;28;20175;-77
2023/01/04 09:18:33;;;;;;;5.95;3.13;;;;;;;4.24;100.00;96522.84;5011441;28;20045;-78
2023/01/04 09:21:05;;;;;;;6.15;3.22;;;;;;;4.32;100.00;96525.25;5010294;28;20045;-77
2023/01/04 09:23:30;;;;;;;5.90;3.40;;;;;;;4.51;100.00;96525.38;5009813;28;20061;-79
2023/01/04 09:25:56;;;;;;;17.48;4.50;;;;;;;4.58;100.00;96517.53;5010009;28;20111;-79
2023/01/04 09:28:21;;;;;;;6.82;3.30;;;;;;;4.64;100.00;96520.13;5010130;28;20404;-77
2023/01/04 09:30:47;;;;;;;6.40;3.00;;;;;;;4.86;100.00;96514.63;5011007;28;20080;-77
2023/01/04 09:33:12;;;;;;;8.00;3.15;;;;;;;5.00;100.00;96510.16;5010137;28;20507;-79
2023/01/04 09:35:38;;;;;;;5.90;3.30;;;;;;;5.10;100.00;96509.66;5010948;28;20065;-77
2023/01/04 09:38:03;;;;;;;6.45;2.80;;;;;;;5.32;100.00;96512.75;5010047;28;20071;-78
2023/01/04 09:40:50;;;;;;;6.65;3.10;;;;;;;5.49;100.00;96513.06;5010136;28;20069;-77
2023/01/04 09:43:19;;;;;;;6.20;2.53;;;;;;;5.72;100.00;96515.88;4998734;28;20129;-79
2023/01/04 09:45:48;;;;;;;7.57;2.88;;;;;;;5.82;100.00;96506.75;4999739;28;20050;-78
2023/01/04 09:48:19;;;;;;;6.00;2.90;;;;;;;6.29;100.00;96507.13;5019949;28;20116;-76
2023/01/04 09:50:52;;;;;;;5.15;2.88;;;;;;;6.89;100.00;96505.66;5034498;28;20678;-73
2023/01/04 09:53:24;;;;;;;6.75;2.50;;;;;;;7.33;100.00;96511.50;5019185;28;20099;-73
2023/01/04 09:55:54;;;;;;;4.38;2.50;;;;;;;6.89;100.00;96500.44;5026494;28;20045;-77
2023/01/04 09:58:29;;;;;;;5.43;2.67;;;;;;;6.64;100.00;96503.13;5012785;28;20045;-78
2023/01/04 10:01:03;;;;;;;4.68;2.60;;;;;;;6.71;100.00;96507.28;5023879;28;20050;-77
2023/01/04 10:03:31;;;;;;;;;;;;;;;6.39;100.00;96506.63;5010910;28;20738;-77
2023/01/04 10:05:57;;;;;;;4.18;2.13;;;;;;;6.44;100.00;96505.97;5010042;28;20380;-78
2023/01/04 10:08:23;;;;;;;4.70;2.35;;;;;;;6.38;100.00;96500.63;5009266;28;20061;-77
2023/01/04 10:11:14;;;;;;;3.63;2.25;;;;;;;6.43;100.00;96499.97;5026108;28;20053;-77
2023/01/04 10:13:48;;;;;;;3.92;2.10;;;;;;;6.51;100.00;96493.66;5023438;28;20081;-77
2023/01/04 10:16:17;;;;;;;3.90;2.15;;;;;;;6.58;100.00;96489.16;5020725;28;20044;-77
2023/01/04 10:19:00;;;;;;;3.75;2.10;;;;;;;6.50;100.00;96487.63;5029269;28;20515;-77
2023/01/04 10:21:35;;;;;;;4.07;2.00;;;;;;;6.59;100.00;96480.25;5030182;28;20045;-78
2023/01/04 10:24:29;;;;;;;3.33;1.90;;;;;;;6.78;100.00;96481.06;5030050;28;20050;-77
2023/01/04 10:27:03;;;;;;;4.80;2.00;;;;;;;6.91;100.00;96482.69;5013208;28;20050;-77
2023/01/04 10:29:48;;;;;;;3.55;1.98;;;;;;;7.02;100.00;96479.31;5010146;28;20415;-76
2023/01/04 10:32:43;;;;;;;4.63;1.77;;;;;;;7.26;100.00;96474.16;5011022;28;20676;-77
2023/01/04 10:35:21;;;;;;;3.03;1.65;;;;;;;7.73;100.00;96461.13;5018789;28;20049;-77
2023/01/04 10:37:53;;;;;;;5.57;1.77;;;;;;;7.50;100.00;96453.25;5003742;28;20458;-76
2023/01/04 10:40:18;;;;;;;3.20;1.50;;;;;;;7.72;100.00;96446.44;5014021;28;20041;-77
2023/01/04 10:42:59;;;;;;;3.38;1.90;;;;;;;8.20;100.00;96447.19;5027667;28;20048;-77
2023/01/04 10:45:40;;;;;;;1.95;1.40;;;;;;;8.23;100.00;96436.25;5015710;28;20073;-77
2023/01/04 10:48:23;;;;;;;3.22;1.42;;;;;;;7.71;100.00;96439.59;5013369;28;20049;-78
2023/01/04 10:51:03;;;;;;;3.35;1.70;;;;;;;7.66;100.00;96433.44;5006275;28;20077;-77
2023/01/04 10:53:40;;;;;;;5.68;2.03;;;;;;;7.52;100.00;96431.03;4995766;28;20050;-77
2023/01/04 10:56:14;;;;;;;2.70;1.73;;;;;;;7.41;100.00;96424.78;5015760;28;20045;-78
2023/01/04 10:58:50;;;;;;;2.63;1.40;;;;;;;7.36;100.00;96422.03;5027153;28;20064;-77
2023/01/04 11:01:23;;;;;;;2.60;1.50;;;;;;;7.20;100.00;96425.31;5022191;28;20137;-77
2023/01/04 11:04:01;;;;;;;4.72;2.35;;;;;;;7.04;100.00;96417.09;5012416;28;20053;-78
2023/01/04 11:06:37;;;;;;;2.63;1.38;;;;;;;7.04;100.00;96409.25;4995021;28;20045;-76
2023/01/04 11:09:15;;;;;;;2.90;1.80;;;;;;;7.02;100.00;96411.25;4995128;28;20042;-77
2023/01/04 11:11:45;;;;;;;3.13;1.75;;;;;;;6.94;100.00;96409.00;4994918;28;20125;-77
2023/01/04 11:14:12;;;;;;;2.92;1.38;;;;;;;6.88;100.00;96399.41;5011754;28;20046;-77
2023/01/04 11:16:45;;;;;;;2.75;1.35;;;;;;;6.85;100.00;96399.84;5011767;28;20038;-77
2023/01/04 11:19:11;;;;;;;2.03;1.15;;;;;;;7.06;100.00;96396.72;5012271;28;20038;-77
2023/01/04 11:21:43;;;;;;;3.38;2.03;;;;;;;6.95;100.00;96394.84;5012127;28;20631;-77
2023/01/04 11:24:10;;;;;;;1.10;1.00;;;;;;;6.96;100.00;96391.22;5012102;28;20050;-77
2023/01/04 11:26:40;;;;;;;1.73;1.20;;;;;;;6.99;100.00;96395.22;5002729;28;20485;-77
2023/01/04 11:29:23;;;;;;;2.05;1.50;;;;;;;6.97;100.00;96390.22;5017763;28;20045;-76
2023/01/04 11:31:56;;;;;;;3.47;1.73;;;;;;;6.94;100.00;96382.81;5007661;28;20073;-77
2023/01/04 11:34:46;;;;;;;1.90;1.30;;;;;;;7.11;100.00;96375.91;5024958;28;20038;-77
2023/01/04 11:37:26;;;;;;;2.15;1.20;;;;;;;7.02;100.00;96372.00;5032787;28;20120;-77
2023/01/04 11:40:15;;;;;;;2.00;1.23;;;;;;;6.94;100.00;96367.13;5033652;28;20048;-77
2023/01/04 11:42:40;;;;;;;3.47;1.48;;;;;;;6.93;100.00;96355.03;5028994;28;20046;-77
2023/01/04 11:45:16;;;;;;;3.22;1.63;;;;;;;7.06;100.00;96365.31;5021289;28;20072;-77
2023/01/04 11:47:56;;;;;;;2.45;1.40;;;;;;;7.13;100.00;96365.22;5031850;28;20040;-78
2023/01/04 11:50:42;;;;;;;2.35;1.50;;;;;;;7.16;100.00;96371.81;5025427;28;20406;-77
2023/01/04 11:53:56;;;;;;;3.38;1.80;;;;;;;7.20;100.00;96360.66;5041696;28;20434;-78
2023/01/04 11:56:24;;;;;;;3.08;1.40;;;;;;;7.29;100.00;96353.25;4931272;29;20037;-77
2023/01/04 11:59:12;;;;;;;3.10;1.60;;;;;;;7.38;100.00;96341.41;4920631;29;20048;-78
2023/01/04 12:01:51;;;;;;;2.20;1.30;;;;;;;7.46;100.00;96343.69;4993314;28;20112;-77
2023/01/04 12:04:26;;;;;;;2.67;1.58;;;;;;;7.54;100.00;96323.41;5037673;28;20022;-77
2023/01/04 12:06:55;;;;;;;3.47;1.48;;;;;;;7.60;100.00;96332.97;5021693;28;20073;-78
2023/01/04 12:09:21;;;;;;;1.67;1.30;;;;;;;7.69;100.00;96328.22;5027090;28;20045;-77
2023/01/04 12:11:57;;;;;;;1.25;1.13;;;;;;;7.79;100.00;96321.34;5033192;28;20056;-77
2023/01/04 12:14:24;;;;;;;2.97;1.50;;;;;;;7.74;100.00;96316.00;5031966;28;20041;-77
2023/01/04 12:17:11;;;;;;;1.88;1.30;;;;;;;7.79;100.00;96320.56;5031687;28;20034;-78
2023/01/04 12:19:40;;;;;;;4.78;1.30;;;;;;;7.90;100.00;96306.63;5023951;28;20076;-77
2023/01/04 12:22:22;;;;;;;2.25;1.17;;;;;;;7.76;100.00;96303.47;5010491;28;20045;-76
2023/01/04 12:24:48;;;;;;;1.60;1.10;;;;;;;7.94;100.00;96301.69;4993582;28;20385;-78
2023/01/04 12:27:14;;;;;;;1.80;1.00;;;;;;;7.91;100.00;96307.41;4993742;28;20038;-78